EJA209 KEYW-KORL
Flight info
| Callsign | EJA209 |
|---|---|
| Flight time | N/A |
| Altitude | 28000 |
| Route | BUFTT1 GUFFS FERAL JOKRS4 |
| Aircraft | CL60/M-SADE3FGHIJ3J4J7P2RWXY/HB1D1 |
Departure
| Time | N/A |
|---|---|
| Airport | Key West International Airport (KEYW) |
Arrival
| Time | 2026-05-03 20:18 |
|---|---|
| Airport | Orlando Executive Airport (KORL) |
| Time | Latitude | Longitude | Altitude | Speed | Heading |
|---|---|---|---|---|---|
| 2026-05-03 20:15 | 28.49893 | -81.45272 | 1970 ft | 171 kts | 63° |
| 2026-05-03 20:15 | 28.50405 | -81.44050 | 1926 ft | 170 kts | 63° |
| 2026-05-03 20:15 | 28.50883 | -81.42864 | 1709 ft | 154 kts | 64° |
| 2026-05-03 20:15 | 28.51279 | -81.41832 | 1570 ft | 131 kts | 64° |
| 2026-05-03 20:16 | 28.51618 | -81.40928 | 1400 ft | 120 kts | 64° |
| 2026-05-03 20:16 | 28.51940 | -81.40077 | 1231 ft | 115 kts | 65° |
| 2026-05-03 20:16 | 28.52254 | -81.39247 | 1048 ft | 114 kts | 64° |
| 2026-05-03 20:16 | 28.52593 | -81.38439 | 886 ft | 115 kts | 63° |
| 2026-05-03 20:17 | 28.52912 | -81.37612 | 762 ft | 114 kts | 67° |
| 2026-05-03 20:17 | 28.53209 | -81.36773 | 644 ft | 113 kts | 67° |
| 2026-05-03 20:17 | 28.53506 | -81.35954 | 517 ft | 112 kts | 65° |
| 2026-05-03 20:17 | 28.53829 | -81.35135 | 379 ft | 115 kts | 63° |
| 2026-05-03 20:18 | 28.54140 | -81.34326 | 229 ft | 107 kts | 67° |
| 2026-05-03 20:18 | 28.54421 | -81.33575 | 110 ft | 95 kts | 67° |
| 2026-05-03 20:18 | 28.54628 | -81.33017 | 114 ft | 49 kts | 66° |
| 2026-05-03 20:18 | 28.54695 | -81.32844 | 115 ft | 14 kts | 64° |
| 2026-05-03 20:19 | 28.54734 | -81.32802 | 115 ft | 5 kts | 9° |
| 2026-05-03 20:19 | 28.54768 | -81.32833 | 115 ft | 8 kts | 299° |
| 2026-05-03 20:19 | 28.54805 | -81.32905 | 115 ft | 10 kts | 302° |
| 2026-05-03 20:19 | 28.54789 | -81.32990 | 114 ft | 14 kts | 244° |
| 2026-05-03 20:20 | 28.54744 | -81.33103 | 114 ft | 15 kts | 247° |
| 2026-05-03 20:20 | 28.54720 | -81.33195 | 113 ft | 14 kts | 266° |
| 2026-05-03 20:20 | 28.54711 | -81.33327 | 111 ft | 19 kts | 265° |
| 2026-05-03 20:20 | 28.54695 | -81.33484 | 110 ft | 12 kts | 263° |
| 2026-05-03 20:21 | 28.54687 | -81.33586 | 110 ft | 11 kts | 266° |
| 2026-05-03 20:21 | 28.54731 | -81.33665 | 110 ft | 8 kts | 311° |
| 2026-05-03 20:21 | 28.54769 | -81.33716 | 110 ft | 7 kts | 311° |
| 2026-05-03 20:21 | 28.54793 | -81.33743 | 110 ft | 0 kts | 320° |